sensor_id;sensor_type;location;lat;lon;timestamp;temperature;humidity
55492;DHT22;41354;52.990;6.878;2022-07-17T00:00:45;10.70;99.90
55492;DHT22;41354;52.990;6.878;2022-07-17T00:03:15;10.60;99.90
55492;DHT22;41354;52.990;6.878;2022-07-17T00:05:42;10.60;99.90
55492;DHT22;41354;52.990;6.878;2022-07-17T00:08:09;10.50;99.90
55492;DHT22;41354;52.990;6.878;2022-07-17T00:10:37;10.50;99.90
55492;DHT22;41354;52.990;6.878;2022-07-17T00:13:03;10.40;99.90
55492;DHT22;41354;52.990;6.878;2022-07-17T00:15:29;10.30;99.90
55492;DHT22;41354;52.990;6.878;2022-07-17T00:17:55;10.30;99.90
55492;DHT22;41354;52.990;6.878;2022-07-17T00:20:21;10.30;99.90
55492;DHT22;41354;52.990;6.878;2022-07-17T00:22:49;10.30;99.90
55492;DHT22;41354;52.990;6.878;2022-07-17T00:25:14;10.20;99.90
55492;DHT22;41354;52.990;6.878;2022-07-17T00:27:40;10.20;99.90
55492;DHT22;41354;52.990;6.878;2022-07-17T00:30:06;10.20;99.90
55492;DHT22;41354;52.990;6.878;2022-07-17T00:32:33;10.20;99.90
55492;DHT22;41354;52.990;6.878;2022-07-17T00:34:59;10.20;99.90
55492;DHT22;41354;52.990;6.878;2022-07-17T00:37:24;10.20;99.90
55492;DHT22;41354;52.990;6.878;2022-07-17T00:39:50;10.20;99.90
55492;DHT22;41354;52.990;6.878;2022-07-17T00:42:16;10.30;99.90
55492;DHT22;41354;52.990;6.878;2022-07-17T00:44:42;10.20;99.90
55492;DHT22;41354;52.990;6.878;2022-07-17T00:47:16;10.10;99.90
55492;DHT22;41354;52.990;6.878;2022-07-17T00:49:42;10.00;99.90
55492;DHT22;41354;52.990;6.878;2022-07-17T00:52:12;10.00;99.90
55492;DHT22;41354;52.990;6.878;2022-07-17T00:54:39;9.90;99.90
55492;DHT22;41354;52.990;6.878;2022-07-17T00:57:14;9.90;99.90
55492;DHT22;41354;52.990;6.878;2022-07-17T00:59:40;9.80;99.90
55492;DHT22;41354;52.990;6.878;2022-07-17T01:02:07;9.70;99.90
55492;DHT22;41354;52.990;6.878;2022-07-17T01:04:34;9.70;99.90
55492;DHT22;41354;52.990;6.878;2022-07-17T01:07:01;9.70;99.90
55492;DHT22;41354;52.990;6.878;2022-07-17T01:09:28;9.60;99.90
55492;DHT22;41354;52.990;6.878;2022-07-17T01:11:55;9.60;99.90
55492;DHT22;41354;52.990;6.878;2022-07-17T01:14:21;9.60;99.90
55492;DHT22;41354;52.990;6.878;2022-07-17T01:16:47;9.60;99.90
55492;DHT22;41354;52.990;6.878;2022-07-17T01:19:13;9.60;99.90
55492;DHT22;41354;52.990;6.878;2022-07-17T01:21:40;9.60;99.90
55492;DHT22;41354;52.990;6.878;2022-07-17T01:24:06;9.60;99.90
55492;DHT22;41354;52.990;6.878;2022-07-17T01:26:32;9.50;99.90
55492;DHT22;41354;52.990;6.878;2022-07-17T01:28:58;9.50;99.90
55492;DHT22;41354;52.990;6.878;2022-07-17T01:31:23;9.40;99.90
55492;DHT22;41354;52.990;6.878;2022-07-17T01:33:49;9.40;99.90
55492;DHT22;41354;52.990;6.878;2022-07-17T01:36:15;9.40;99.90
55492;DHT22;41354;52.990;6.878;2022-07-17T01:38:40;9.40;99.90
55492;DHT22;41354;52.990;6.878;2022-07-17T01:41:06;9.40;99.90
55492;DHT22;41354;52.990;6.878;2022-07-17T01:43:31;9.40;99.90
55492;DHT22;41354;52.990;6.878;2022-07-17T01:45:57;9.40;99.90
55492;DHT22;41354;52.990;6.878;2022-07-17T01:48:25;9.40;99.90
55492;DHT22;41354;52.990;6.878;2022-07-17T01:50:50;9.40;99.90
55492;DHT22;41354;52.990;6.878;2022-07-17T01:53:16;9.40;99.90
55492;DHT22;41354;52.990;6.878;2022-07-17T01:55:42;9.30;99.90
55492;DHT22;41354;52.990;6.878;2022-07-17T01:58:07;9.20;99.90
55492;DHT22;41354;52.990;6.878;2022-07-17T02:00:33;9.20;99.90
55492;DHT22;41354;52.990;6.878;2022-07-17T02:02:58;9.10;99.90
55492;DHT22;41354;52.990;6.878;2022-07-17T02:05:24;9.20;99.90
55492;DHT22;41354;52.990;6.878;2022-07-17T02:07:49;9.20;99.90
55492;DHT22;41354;52.990;6.878;2022-07-17T02:10:15;9.10;99.90
55492;DHT22;41354;52.990;6.878;2022-07-17T02:12:42;9.10;99.90
55492;DHT22;41354;52.990;6.878;2022-07-17T02:15:08;9.20;99.90
55492;DHT22;41354;52.990;6.878;2022-07-17T02:17:34;9.10;99.90
55492;DHT22;41354;52.990;6.878;2022-07-17T02:19:59;9.20;99.90
55492;DHT22;41354;52.990;6.878;2022-07-17T02:22:25;9.10;99.90
55492;DHT22;41354;52.990;6.878;2022-07-17T02:24:51;9.10;99.90
55492;DHT22;41354;52.990;6.878;2022-07-17T02:27:16;9.10;99.90
55492;DHT22;41354;52.990;6.878;2022-07-17T02:29:42;9.10;99.90
55492;DHT22;41354;52.990;6.878;2022-07-17T02:32:07;9.00;99.90
55492;DHT22;41354;52.990;6.878;2022-07-17T02:34:33;9.00;99.90
55492;DHT22;41354;52.990;6.878;2022-07-17T02:36:58;9.00;99.90
55492;DHT22;41354;52.990;6.878;2022-07-17T02:39:24;9.00;99.90
55492;DHT22;41354;52.990;6.878;2022-07-17T02:41:49;9.10;99.90
55492;DHT22;41354;52.990;6.878;2022-07-17T02:44:15;9.10;99.90
55492;DHT22;41354;52.990;6.878;2022-07-17T02:46:40;9.00;99.90
55492;DHT22;41354;52.990;6.878;2022-07-17T02:49:06;9.10;99.90
55492;DHT22;41354;52.990;6.878;2022-07-17T02:51:32;9.10;99.90
55492;DHT22;41354;52.990;6.878;2022-07-17T02:53:57;9.20;99.90
55492;DHT22;41354;52.990;6.878;2022-07-17T02:56:23;9.10;99.90
55492;DHT22;41354;52.990;6.878;2022-07-17T02:58:48;9.10;99.90
55492;DHT22;41354;52.990;6.878;2022-07-17T03:01:14;9.00;99.90
55492;DHT22;41354;52.990;6.878;2022-07-17T03:03:39;9.00;99.90
55492;DHT22;41354;52.990;6.878;2022-07-17T03:06:05;8.90;99.90
55492;DHT22;41354;52.990;6.878;2022-07-17T03:08:31;8.90;99.90
55492;DHT22;41354;52.990;6.878;2022-07-17T03:10:56;8.80;99.90
55492;DHT22;41354;52.990;6.878;2022-07-17T03:13:22;8.80;99.90
55492;DHT22;41354;52.990;6.878;2022-07-17T03:15:48;8.80;99.90
55492;DHT22;41354;52.990;6.878;2022-07-17T03:18:13;8.80;99.90
55492;DHT22;41354;52.990;6.878;2022-07-17T03:20:39;8.80;99.90
55492;DHT22;41354;52.990;6.878;2022-07-17T03:23:04;8.90;99.90
55492;DHT22;41354;52.990;6.878;2022-07-17T03:25:30;8.80;99.90
55492;DHT22;41354;52.990;6.878;2022-07-17T03:27:56;8.80;99.90
55492;DHT22;41354;52.990;6.878;2022-07-17T03:30:21;8.80;99.90
55492;DHT22;41354;52.990;6.878;2022-07-17T03:32:47;8.80;99.90
55492;DHT22;41354;52.990;6.878;2022-07-17T03:35:12;8.70;99.90
55492;DHT22;41354;52.990;6.878;2022-07-17T03:37:38;8.70;99.90
55492;DHT22;41354;52.990;6.878;2022-07-17T03:40:05;8.60;99.90
55492;DHT22;41354;52.990;6.878;2022-07-17T03:42:32;8.60;99.90
55492;DHT22;41354;52.990;6.878;2022-07-17T03:44:57;8.60;99.90
55492;DHT22;41354;52.990;6.878;2022-07-17T03:47:23;8.60;99.90
55492;DHT22;41354;52.990;6.878;2022-07-17T03:49:48;8.60;99.90
55492;DHT22;41354;52.990;6.878;2022-07-17T03:52:14;8.60;99.90
55492;DHT22;41354;52.990;6.878;2022-07-17T03:54:39;8.60;99.90
55492;DHT22;41354;52.990;6.878;2022-07-17T03:57:05;8.60;99.90
55492;DHT22;41354;52.990;6.878;2022-07-17T03:59:31;8.50;99.90
55492;DHT22;41354;52.990;6.878;2022-07-17T04:01:56;8.50;99.90
55492;DHT22;41354;52.990;6.878;2022-07-17T04:04:22;8.50;99.90
55492;DHT22;41354;52.990;6.878;2022-07-17T04:06:47;8.50;99.90
55492;DHT22;41354;52.990;6.878;2022-07-17T04:09:13;8.50;99.90
55492;DHT22;41354;52.990;6.878;2022-07-17T04:11:38;8.50;99.90
55492;DHT22;41354;52.990;6.878;2022-07-17T04:14:04;8.50;99.90
55492;DHT22;41354;52.990;6.878;2022-07-17T04:16:29;8.60;99.90
55492;DHT22;41354;52.990;6.878;2022-07-17T04:18:55;8.60;99.90
55492;DHT22;41354;52.990;6.878;2022-07-17T04:21:21;8.70;99.90
55492;DHT22;41354;52.990;6.878;2022-07-17T04:23:47;8.70;99.90
55492;DHT22;41354;52.990;6.878;2022-07-17T04:26:12;8.80;99.90
55492;DHT22;41354;52.990;6.878;2022-07-17T04:28:39;8.90;99.90
55492;DHT22;41354;52.990;6.878;2022-07-17T04:31:05;9.00;99.90
55492;DHT22;41354;52.990;6.878;2022-07-17T04:33:30;9.10;99.90
55492;DHT22;41354;52.990;6.878;2022-07-17T04:35:56;9.20;99.90
55492;DHT22;41354;52.990;6.878;2022-07-17T04:38:21;9.30;99.90
55492;DHT22;41354;52.990;6.878;2022-07-17T04:40:47;9.40;99.90
55492;DHT22;41354;52.990;6.878;2022-07-17T04:43:13;9.50;99.90
55492;DHT22;41354;52.990;6.878;2022-07-17T04:45:38;9.50;99.90
55492;DHT22;41354;52.990;6.878;2022-07-17T04:48:04;9.60;99.90
55492;DHT22;41354;52.990;6.878;2022-07-17T04:50:30;9.70;99.90
55492;DHT22;41354;52.990;6.878;2022-07-17T04:52:56;9.80;99.90
55492;DHT22;41354;52.990;6.878;2022-07-17T04:55:22;9.90;99.90
55492;DHT22;41354;52.990;6.878;2022-07-17T04:57:48;10.00;99.90
55492;DHT22;41354;52.990;6.878;2022-07-17T05:00:14;10.10;99.90
55492;DHT22;41354;52.990;6.878;2022-07-17T05:02:40;10.20;99.90
55492;DHT22;41354;52.990;6.878;2022-07-17T05:05:06;10.30;99.90
55492;DHT22;41354;52.990;6.878;2022-07-17T05:07:32;10.50;99.90
55492;DHT22;41354;52.990;6.878;2022-07-17T05:09:57;10.60;99.90
55492;DHT22;41354;52.990;6.878;2022-07-17T05:12:23;10.70;99.90
55492;DHT22;41354;52.990;6.878;2022-07-17T05:14:49;10.90;99.90
55492;DHT22;41354;52.990;6.878;2022-07-17T05:17:14;11.00;99.90
55492;DHT22;41354;52.990;6.878;2022-07-17T05:19:40;11.10;99.90
55492;DHT22;41354;52.990;6.878;2022-07-17T05:22:05;11.20;99.90
55492;DHT22;41354;52.990;6.878;2022-07-17T05:24:31;11.30;99.90
55492;DHT22;41354;52.990;6.878;2022-07-17T05:26:59;11.50;99.90
55492;DHT22;41354;52.990;6.878;2022-07-17T05:29:25;11.70;99.90
55492;DHT22;41354;52.990;6.878;2022-07-17T05:31:50;11.80;99.90
55492;DHT22;41354;52.990;6.878;2022-07-17T05:34:16;12.00;99.90
55492;DHT22;41354;52.990;6.878;2022-07-17T05:36:41;12.10;99.90
55492;DHT22;41354;52.990;6.878;2022-07-17T05:39:07;12.20;99.90
55492;DHT22;41354;52.990;6.878;2022-07-17T05:41:34;12.30;99.90
55492;DHT22;41354;52.990;6.878;2022-07-17T05:43:59;12.30;99.90
55492;DHT22;41354;52.990;6.878;2022-07-17T05:46:25;12.50;99.90
55492;DHT22;41354;52.990;6.878;2022-07-17T05:48:50;12.60;99.90
55492;DHT22;41354;52.990;6.878;2022-07-17T05:51:16;12.80;99.90
55492;DHT22;41354;52.990;6.878;2022-07-17T05:53:41;13.00;99.90
55492;DHT22;41354;52.990;6.878;2022-07-17T05:56:07;13.20;99.90
55492;DHT22;41354;52.990;6.878;2022-07-17T05:58:33;13.30;99.90
55492;DHT22;41354;52.990;6.878;2022-07-17T06:00:58;13.60;99.90
55492;DHT22;41354;52.990;6.878;2022-07-17T06:03:24;13.60;99.90
55492;DHT22;41354;52.990;6.878;2022-07-17T06:05:49;13.70;99.90
55492;DHT22;41354;52.990;6.878;2022-07-17T06:08:15;13.90;99.90
55492;DHT22;41354;52.990;6.878;2022-07-17T06:10:40;14.00;99.90
55492;DHT22;41354;52.990;6.878;2022-07-17T06:13:06;14.10;99.90
55492;DHT22;41354;52.990;6.878;2022-07-17T06:15:31;14.20;99.90
55492;DHT22;41354;52.990;6.878;2022-07-17T06:18:03;14.30;99.90
55492;DHT22;41354;52.990;6.878;2022-07-17T06:20:29;14.40;99.90
55492;DHT22;41354;52.990;6.878;2022-07-17T06:22:55;14.60;99.90
55492;DHT22;41354;52.990;6.878;2022-07-17T06:25:21;14.70;99.90
55492;DHT22;41354;52.990;6.878;2022-07-17T06:27:47;14.80;99.90
55492;DHT22;41354;52.990;6.878;2022-07-17T06:30:14;14.80;99.90
55492;DHT22;41354;52.990;6.878;2022-07-17T06:32:40;15.00;99.90
55492;DHT22;41354;52.990;6.878;2022-07-17T06:35:06;15.10;99.90
55492;DHT22;41354;52.990;6.878;2022-07-17T06:37:32;15.20;99.90
55492;DHT22;41354;52.990;6.878;2022-07-17T06:39:58;15.40;99.90
55492;DHT22;41354;52.990;6.878;2022-07-17T06:42:23;15.50;99.90
55492;DHT22;41354;52.990;6.878;2022-07-17T06:44:49;15.80;99.90
55492;DHT22;41354;52.990;6.878;2022-07-17T06:47:14;16.10;99.90
55492;DHT22;41354;52.990;6.878;2022-07-17T06:49:40;16.40;99.90
55492;DHT22;41354;52.990;6.878;2022-07-17T06:52:06;16.70;99.90
55492;DHT22;41354;52.990;6.878;2022-07-17T06:54:31;17.00;99.90
55492;DHT22;41354;52.990;6.878;2022-07-17T06:56:57;17.30;99.90
55492;DHT22;41354;52.990;6.878;2022-07-17T06:59:22;17.60;99.90
55492;DHT22;41354;52.990;6.878;2022-07-17T07:01:48;17.50;99.90
55492;DHT22;41354;52.990;6.878;2022-07-17T07:04:14;17.50;99.90
55492;DHT22;41354;52.990;6.878;2022-07-17T07:06:39;17.60;99.90
55492;DHT22;41354;52.990;6.878;2022-07-17T07:09:05;17.90;99.90
55492;DHT22;41354;52.990;6.878;2022-07-17T07:11:31;18.50;99.90
55492;DHT22;41354;52.990;6.878;2022-07-17T07:13:57;18.80;99.90
55492;DHT22;41354;52.990;6.878;2022-07-17T07:16:22;18.60;99.90
55492;DHT22;41354;52.990;6.878;2022-07-17T07:18:48;18.30;99.90
55492;DHT22;41354;52.990;6.878;2022-07-17T07:21:13;18.10;99.90
55492;DHT22;41354;52.990;6.878;2022-07-17T07:23:39;18.00;99.90
55492;DHT22;41354;52.990;6.878;2022-07-17T07:26:05;18.00;99.90
55492;DHT22;41354;52.990;6.878;2022-07-17T07:28:30;18.00;99.90
55492;DHT22;41354;52.990;6.878;2022-07-17T07:30:56;18.10;99.90
55492;DHT22;41354;52.990;6.878;2022-07-17T07:33:21;18.20;99.90
55492;DHT22;41354;52.990;6.878;2022-07-17T07:35:47;18.30;99.90
55492;DHT22;41354;52.990;6.878;2022-07-17T07:38:13;18.40;99.90
55492;DHT22;41354;52.990;6.878;2022-07-17T07:40:38;18.50;99.90
55492;DHT22;41354;52.990;6.878;2022-07-17T07:43:04;18.60;99.90
55492;DHT22;41354;52.990;6.878;2022-07-17T07:45:30;18.70;99.90
55492;DHT22;41354;52.990;6.878;2022-07-17T07:47:57;18.80;99.90
55492;DHT22;41354;52.990;6.878;2022-07-17T07:50:24;18.80;99.90
55492;DHT22;41354;52.990;6.878;2022-07-17T07:52:51;18.70;99.90
55492;DHT22;41354;52.990;6.878;2022-07-17T07:55:17;18.60;99.90
55492;DHT22;41354;52.990;6.878;2022-07-17T07:57:43;18.60;99.90
55492;DHT22;41354;52.990;6.878;2022-07-17T08:00:10;18.70;99.90
55492;DHT22;41354;52.990;6.878;2022-07-17T08:02:36;18.80;99.90
55492;DHT22;41354;52.990;6.878;2022-07-17T08:05:02;18.90;99.90
55492;DHT22;41354;52.990;6.878;2022-07-17T08:07:29;19.00;99.90
55492;DHT22;41354;52.990;6.878;2022-07-17T08:09:55;19.20;99.90
55492;DHT22;41354;52.990;6.878;2022-07-17T08:12:21;19.40;99.90
55492;DHT22;41354;52.990;6.878;2022-07-17T08:14:47;19.60;99.90
55492;DHT22;41354;52.990;6.878;2022-07-17T08:17:13;19.70;99.90
55492;DHT22;41354;52.990;6.878;2022-07-17T08:19:38;19.80;99.90
55492;DHT22;41354;52.990;6.878;2022-07-17T08:22:04;19.90;99.90
55492;DHT22;41354;52.990;6.878;2022-07-17T08:24:29;20.10;99.90
55492;DHT22;41354;52.990;6.878;2022-07-17T08:26:55;20.30;99.90
55492;DHT22;41354;52.990;6.878;2022-07-17T08:29:20;20.40;99.90
55492;DHT22;41354;52.990;6.878;2022-07-17T08:31:46;20.30;99.90
55492;DHT22;41354;52.990;6.878;2022-07-17T08:34:12;20.10;99.90
55492;DHT22;41354;52.990;6.878;2022-07-17T08:36:40;20.30;99.90
55492;DHT22;41354;52.990;6.878;2022-07-17T08:39:06;20.40;99.90
55492;DHT22;41354;52.990;6.878;2022-07-17T08:41:32;20.70;99.90
55492;DHT22;41354;52.990;6.878;2022-07-17T08:44:03;21.00;99.90
55492;DHT22;41354;52.990;6.878;2022-07-17T08:46:29;21.00;99.90
55492;DHT22;41354;52.990;6.878;2022-07-17T08:48:59;21.00;99.90
55492;DHT22;41354;52.990;6.878;2022-07-17T08:51:25;21.40;99.90
55492;DHT22;41354;52.990;6.878;2022-07-17T08:53:52;21.20;98.70
55492;DHT22;41354;52.990;6.878;2022-07-17T08:56:17;21.20;98.30
55492;DHT22;41354;52.990;6.878;2022-07-17T08:58:43;21.40;98.20
55492;DHT22;41354;52.990;6.878;2022-07-17T09:01:09;21.60;99.20
55492;DHT22;41354;52.990;6.878;2022-07-17T09:03:35;21.80;98.40
55492;DHT22;41354;52.990;6.878;2022-07-17T09:06:02;21.90;97.90
55492;DHT22;41354;52.990;6.878;2022-07-17T09:08:27;22.00;98.40
55492;DHT22;41354;52.990;6.878;2022-07-17T09:10:58;22.20;96.90
55492;DHT22;41354;52.990;6.878;2022-07-17T09:13:29;22.40;96.50
55492;DHT22;41354;52.990;6.878;2022-07-17T09:16:10;22.30;96.60
55492;DHT22;41354;52.990;6.878;2022-07-17T09:18:46;22.30;93.50
55492;DHT22;41354;52.990;6.878;2022-07-17T09:21:22;22.00;93.50
55492;DHT22;41354;52.990;6.878;2022-07-17T09:23:59;22.20;94.00
55492;DHT22;41354;52.990;6.878;2022-07-17T09:26:25;22.30;94.10
55492;DHT22;41354;52.990;6.878;2022-07-17T09:28:51;22.40;94.30
55492;DHT22;41354;52.990;6.878;2022-07-17T09:31:28;22.50;93.30
55492;DHT22;41354;52.990;6.878;2022-07-17T09:33:54;22.80;92.80
55492;DHT22;41354;52.990;6.878;2022-07-17T09:36:28;23.00;91.70
55492;DHT22;41354;52.990;6.878;2022-07-17T09:38:57;23.40;90.10
55492;DHT22;41354;52.990;6.878;2022-07-17T09:41:25;23.50;90.30
55492;DHT22;41354;52.990;6.878;2022-07-17T09:43:56;23.30;89.80
55492;DHT22;41354;52.990;6.878;2022-07-17T09:46:29;23.50;89.70
55492;DHT22;41354;52.990;6.878;2022-07-17T09:49:06;23.70;89.00
55492;DHT22;41354;52.990;6.878;2022-07-17T09:51:38;23.90;83.60
55492;DHT22;41354;52.990;6.878;2022-07-17T09:54:06;24.10;85.40
55492;DHT22;41354;52.990;6.878;2022-07-17T09:56:35;24.30;87.90
55492;DHT22;41354;52.990;6.878;2022-07-17T09:59:07;24.50;86.10
55492;DHT22;41354;52.990;6.878;2022-07-17T10:01:34;24.70;82.30
55492;DHT22;41354;52.990;6.878;2022-07-17T10:04:01;24.50;83.00
55492;DHT22;41354;52.990;6.878;2022-07-17T10:06:27;24.60;82.60
55492;DHT22;41354;52.990;6.878;2022-07-17T10:08:53;24.60;83.50
55492;DHT22;41354;52.990;6.878;2022-07-17T10:11:20;24.60;81.60
55492;DHT22;41354;52.990;6.878;2022-07-17T10:13:48;24.60;79.20
55492;DHT22;41354;52.990;6.878;2022-07-17T10:16:25;24.70;79.20
55492;DHT22;41354;52.990;6.878;2022-07-17T10:18:51;25.00;76.70
55492;DHT22;41354;52.990;6.878;2022-07-17T10:21:21;25.30;75.70
55492;DHT22;41354;52.990;6.878;2022-07-17T10:24:06;25.40;76.00
55492;DHT22;41354;52.990;6.878;2022-07-17T10:26:33;25.70;75.90
55492;DHT22;41354;52.990;6.878;2022-07-17T10:28:59;25.80;77.30
55492;DHT22;41354;52.990;6.878;2022-07-17T10:31:26;25.80;76.10
55492;DHT22;41354;52.990;6.878;2022-07-17T10:34:01;25.90;77.70
55492;DHT22;41354;52.990;6.878;2022-07-17T10:36:33;26.10;74.00
55492;DHT22;41354;52.990;6.878;2022-07-17T10:39:10;26.50;69.80
55492;DHT22;41354;52.990;6.878;2022-07-17T10:41:36;26.40;69.90
55492;DHT22;41354;52.990;6.878;2022-07-17T10:44:01;26.20;70.30
55492;DHT22;41354;52.990;6.878;2022-07-17T10:46:27;26.20;70.60
55492;DHT22;41354;52.990;6.878;2022-07-17T10:48:55;26.40;72.20
55492;DHT22;41354;52.990;6.878;2022-07-17T10:51:23;26.60;69.00
55492;DHT22;41354;52.990;6.878;2022-07-17T10:53:49;26.50;69.20
55492;DHT22;41354;52.990;6.878;2022-07-17T10:56:16;26.60;68.80
55492;DHT22;41354;52.990;6.878;2022-07-17T10:58:43;26.30;67.50
55492;DHT22;41354;52.990;6.878;2022-07-17T11:01:17;26.30;68.40
55492;DHT22;41354;52.990;6.878;2022-07-17T11:03:50;26.50;69.50
55492;DHT22;41354;52.990;6.878;2022-07-17T11:11:14;26.00;65.10
55492;DHT22;41354;52.990;6.878;2022-07-17T11:13:40;25.90;64.90
55492;DHT22;41354;52.990;6.878;2022-07-17T11:16:06;25.80;66.60
55492;DHT22;41354;52.990;6.878;2022-07-17T11:18:32;26.10;67.10
55492;DHT22;41354;52.990;6.878;2022-07-17T11:21:01;26.20;66.20
55492;DHT22;41354;52.990;6.878;2022-07-17T11:23:32;26.60;65.90
55492;DHT22;41354;52.990;6.878;2022-07-17T11:26:05;26.50;65.20
55492;DHT22;41354;52.990;6.878;2022-07-17T11:28:42;26.30;66.00
55492;DHT22;41354;52.990;6.878;2022-07-17T11:34:03;26.60;65.90
55492;DHT22;41354;52.990;6.878;2022-07-17T11:39:07;26.90;64.00
55492;DHT22;41354;52.990;6.878;2022-07-17T11:41:38;26.80;64.70
55492;DHT22;41354;52.990;6.878;2022-07-17T11:44:08;27.00;64.80
55492;DHT22;41354;52.990;6.878;2022-07-17T11:46:36;27.40;66.40
55492;DHT22;41354;52.990;6.878;2022-07-17T11:49:02;27.80;63.20
55492;DHT22;41354;52.990;6.878;2022-07-17T11:54:11;27.30;61.70
55492;DHT22;41354;52.990;6.878;2022-07-17T11:56:37;27.00;62.10
55492;DHT22;41354;52.990;6.878;2022-07-17T11:59:05;26.90;63.50
55492;DHT22;41354;52.990;6.878;2022-07-17T12:01:44;27.10;63.60
55492;DHT22;41354;52.990;6.878;2022-07-17T12:04:13;27.50;62.10
55492;DHT22;41354;52.990;6.878;2022-07-17T12:06:39;27.60;63.70
55492;DHT22;41354;52.990;6.878;2022-07-17T12:09:05;28.10;61.20
55492;DHT22;41354;52.990;6.878;2022-07-17T12:11:31;28.40;59.00
55492;DHT22;41354;52.990;6.878;2022-07-17T12:14:04;28.50;58.80
55492;DHT22;41354;52.990;6.878;2022-07-17T12:16:32;28.10;59.60
55492;DHT22;41354;52.990;6.878;2022-07-17T12:19:09;28.00;61.20
55492;DHT22;41354;52.990;6.878;2022-07-17T12:21:51;28.20;59.90
55492;DHT22;41354;52.990;6.878;2022-07-17T12:24:22;28.30;57.40
55492;DHT22;41354;52.990;6.878;2022-07-17T12:26:48;28.10;58.80
55492;DHT22;41354;52.990;6.878;2022-07-17T12:29:14;28.20;59.40
55492;DHT22;41354;52.990;6.878;2022-07-17T12:31:40;28.50;58.40
55492;DHT22;41354;52.990;6.878;2022-07-17T12:34:05;28.50;57.50
55492;DHT22;41354;52.990;6.878;2022-07-17T12:36:31;29.00;56.80
55492;DHT22;41354;52.990;6.878;2022-07-17T12:38:56;29.10;56.80
55492;DHT22;41354;52.990;6.878;2022-07-17T12:41:22;28.90;57.90
55492;DHT22;41354;52.990;6.878;2022-07-17T12:43:47;29.10;58.70
55492;DHT22;41354;52.990;6.878;2022-07-17T12:46:13;29.40;56.50
55492;DHT22;41354;52.990;6.878;2022-07-17T12:48:39;29.70;55.10
55492;DHT22;41354;52.990;6.878;2022-07-17T12:51:06;29.50;55.30
55492;DHT22;41354;52.990;6.878;2022-07-17T12:53:32;29.20;55.40
55492;DHT22;41354;52.990;6.878;2022-07-17T12:55:58;28.90;55.20
55492;DHT22;41354;52.990;6.878;2022-07-17T12:58:24;28.90;55.00
55492;DHT22;41354;52.990;6.878;2022-07-17T13:00:49;29.00;55.70
55492;DHT22;41354;52.990;6.878;2022-07-17T13:03:15;29.10;55.60
55492;DHT22;41354;52.990;6.878;2022-07-17T13:05:42;28.90;55.60
55492;DHT22;41354;52.990;6.878;2022-07-17T13:08:07;29.20;53.60
55492;DHT22;41354;52.990;6.878;2022-07-17T13:10:36;29.00;52.40
55492;DHT22;41354;52.990;6.878;2022-07-17T13:13:02;29.10;52.60
55492;DHT22;41354;52.990;6.878;2022-07-17T13:15:29;29.60;52.70
55492;DHT22;41354;52.990;6.878;2022-07-17T13:17:55;29.80;51.60
55492;DHT22;41354;52.990;6.878;2022-07-17T13:20:21;30.00;52.00
55492;DHT22;41354;52.990;6.878;2022-07-17T13:22:47;30.10;51.70
55492;DHT22;41354;52.990;6.878;2022-07-17T13:25:12;29.80;50.60
55492;DHT22;41354;52.990;6.878;2022-07-17T13:27:38;29.70;50.80
55492;DHT22;41354;52.990;6.878;2022-07-17T13:30:04;29.90;50.10
55492;DHT22;41354;52.990;6.878;2022-07-17T13:32:29;30.30;52.10
55492;DHT22;41354;52.990;6.878;2022-07-17T13:34:55;30.30;51.90
55492;DHT22;41354;52.990;6.878;2022-07-17T13:37:20;30.40;50.70
55492;DHT22;41354;52.990;6.878;2022-07-17T13:39:46;30.30;49.30
55492;DHT22;41354;52.990;6.878;2022-07-17T13:42:12;30.10;49.50
55492;DHT22;41354;52.990;6.878;2022-07-17T13:44:37;29.80;50.80
55492;DHT22;41354;52.990;6.878;2022-07-17T13:47:03;30.10;50.00
55492;DHT22;41354;52.990;6.878;2022-07-17T13:49:28;30.10;49.80
55492;DHT22;41354;52.990;6.878;2022-07-17T13:51:55;30.20;51.30
55492;DHT22;41354;52.990;6.878;2022-07-17T13:54:20;30.60;49.90
55492;DHT22;41354;52.990;6.878;2022-07-17T13:56:46;30.90;50.30
55492;DHT22;41354;52.990;6.878;2022-07-17T13:59:11;31.00;48.90
55492;DHT22;41354;52.990;6.878;2022-07-17T14:01:37;31.00;47.50
55492;DHT22;41354;52.990;6.878;2022-07-17T14:04:03;30.90;47.80
55492;DHT22;41354;52.990;6.878;2022-07-17T14:06:28;30.90;47.80
55492;DHT22;41354;52.990;6.878;2022-07-17T14:08:54;30.80;47.60
55492;DHT22;41354;52.990;6.878;2022-07-17T14:11:20;30.20;48.00
55492;DHT22;41354;52.990;6.878;2022-07-17T14:13:45;30.10;49.20
55492;DHT22;41354;52.990;6.878;2022-07-17T14:16:11;30.50;47.80
55492;DHT22;41354;52.990;6.878;2022-07-17T14:18:36;31.00;47.20
55492;DHT22;41354;52.990;6.878;2022-07-17T14:21:22;31.50;46.30
55492;DHT22;41354;52.990;6.878;2022-07-17T14:23:47;31.70;46.60
55492;DHT22;41354;52.990;6.878;2022-07-17T14:26:13;31.80;46.90
55492;DHT22;41354;52.990;6.878;2022-07-17T14:28:39;31.80;46.60
55492;DHT22;41354;52.990;6.878;2022-07-17T14:31:04;31.90;44.80
55492;DHT22;41354;52.990;6.878;2022-07-17T14:33:30;32.30;44.20
55492;DHT22;41354;52.990;6.878;2022-07-17T14:35:55;32.80;44.50
55492;DHT22;41354;52.990;6.878;2022-07-17T14:38:21;33.20;45.40
55492;DHT22;41354;52.990;6.878;2022-07-17T14:40:47;33.30;43.80
55492;DHT22;41354;52.990;6.878;2022-07-17T14:43:12;33.50;44.40
55492;DHT22;41354;52.990;6.878;2022-07-17T14:45:38;33.40;43.30
55492;DHT22;41354;52.990;6.878;2022-07-17T14:48:03;33.20;42.90
55492;DHT22;41354;52.990;6.878;2022-07-17T14:50:29;33.00;41.90
55492;DHT22;41354;52.990;6.878;2022-07-17T14:52:54;32.50;41.80
55492;DHT22;41354;52.990;6.878;2022-07-17T14:55:20;32.60;43.40
55492;DHT22;41354;52.990;6.878;2022-07-17T14:57:45;32.80;43.30
55492;DHT22;41354;52.990;6.878;2022-07-17T15:00:11;32.70;42.70
55492;DHT22;41354;52.990;6.878;2022-07-17T15:02:37;32.20;43.30
55492;DHT22;41354;52.990;6.878;2022-07-17T15:05:03;32.20;43.20
55492;DHT22;41354;52.990;6.878;2022-07-17T15:07:29;32.70;44.20
55492;DHT22;41354;52.990;6.878;2022-07-17T15:09:54;33.20;42.30
55492;DHT22;41354;52.990;6.878;2022-07-17T15:12:20;33.50;42.90
55492;DHT22;41354;52.990;6.878;2022-07-17T15:14:45;33.50;42.90
55492;DHT22;41354;52.990;6.878;2022-07-17T15:17:11;33.60;43.80
55492;DHT22;41354;52.990;6.878;2022-07-17T15:19:36;33.20;43.20
55492;DHT22;41354;52.990;6.878;2022-07-17T15:22:02;33.20;43.90
55492;DHT22;41354;52.990;6.878;2022-07-17T15:24:27;32.90;43.20
55492;DHT22;41354;52.990;6.878;2022-07-17T15:26:53;32.40;42.40
55492;DHT22;41354;52.990;6.878;2022-07-17T15:29:20;32.00;42.90
55492;DHT22;41354;52.990;6.878;2022-07-17T15:31:46;31.70;44.20
55492;DHT22;41354;52.990;6.878;2022-07-17T15:34:12;31.70;44.70
55492;DHT22;41354;52.990;6.878;2022-07-17T15:37:04;31.70;44.80
55492;DHT22;41354;52.990;6.878;2022-07-17T15:39:30;31.80;45.80
55492;DHT22;41354;52.990;6.878;2022-07-17T15:41:55;31.70;44.00
55492;DHT22;41354;52.990;6.878;2022-07-17T15:44:21;31.50;43.30